createdAt,value
2018-07-03T00:01:17.534Z,1.00
2018-07-03T00:03:45.868Z,0.70
2018-07-03T00:06:14.248Z,0.60
2018-07-03T00:08:42.593Z,0.60
2018-07-03T00:11:11.152Z,0.73
2018-07-03T00:13:39.535Z,0.90
2018-07-03T00:16:07.990Z,0.90
2018-07-03T00:18:36.385Z,0.77
2018-07-03T00:21:04.974Z,0.60
2018-07-03T00:23:33.372Z,0.60
2018-07-03T00:26:08.390Z,0.90
2018-07-03T00:28:37.378Z,0.90
2018-07-03T00:31:05.793Z,0.70
2018-07-03T00:33:34.204Z,0.70
2018-07-03T00:36:02.648Z,0.67
2018-07-03T00:38:31.049Z,0.70
2018-07-03T00:40:59.421Z,0.73
2018-07-03T00:43:28.019Z,0.60
2018-07-03T00:45:56.509Z,0.80
2018-07-03T00:48:24.904Z,0.70
2018-07-03T00:50:53.300Z,0.77
2018-07-03T00:53:21.695Z,0.80
2018-07-03T00:55:50.061Z,0.60
2018-07-03T00:58:18.420Z,0.60
2018-07-03T01:00:46.891Z,0.70
2018-07-03T01:03:15.548Z,0.60
2018-07-03T01:05:44.116Z,0.83
2018-07-03T01:08:12.652Z,0.60
2018-07-03T01:10:41.029Z,1.03
2018-07-03T01:13:09.723Z,1.10
2018-07-03T01:15:38.092Z,0.90
2018-07-03T01:18:07.006Z,0.97
2018-07-03T01:20:35.461Z,0.70
2018-07-03T01:23:04.018Z,0.83
2018-07-03T01:25:32.503Z,1.00
2018-07-03T01:28:00.924Z,0.97
2018-07-03T01:30:29.413Z,0.90
2018-07-03T01:32:57.933Z,0.67
2018-07-03T01:35:26.380Z,0.80
2018-07-03T01:37:55.203Z,1.00
2018-07-03T01:40:23.614Z,0.87
2018-07-03T01:42:52.241Z,0.90
2018-07-03T01:45:20.639Z,0.80
2018-07-03T01:47:49.016Z,0.80
2018-07-03T01:50:17.387Z,0.77
2018-07-03T01:52:45.752Z,0.70
2018-07-03T01:55:14.137Z,0.90
2018-07-03T01:57:42.725Z,0.70
2018-07-03T02:00:11.092Z,0.90
2018-07-03T02:02:39.455Z,0.80
2018-07-03T02:05:07.803Z,0.90
2018-07-03T02:07:36.165Z,0.80
2018-07-03T02:10:04.813Z,0.77
2018-07-03T02:12:33.270Z,0.80
2018-07-03T02:15:01.733Z,0.83
2018-07-03T02:17:30.134Z,1.10
2018-07-03T02:19:58.605Z,0.83
2018-07-03T02:22:27.108Z,0.60
2018-07-03T02:24:55.569Z,1.00
2018-07-03T02:27:23.915Z,0.80
2018-07-03T02:29:52.224Z,0.90
2018-07-03T02:32:20.514Z,0.90
2018-07-03T02:34:48.872Z,1.03
2018-07-03T02:37:17.153Z,0.60
2018-07-03T02:39:45.448Z,0.73
2018-07-03T02:42:13.788Z,0.80
2018-07-03T02:44:42.083Z,0.90
2018-07-03T02:47:10.416Z,0.90
2018-07-03T02:49:39.121Z,0.80
2018-07-03T02:52:07.445Z,0.90
2018-07-03T02:54:35.760Z,0.77
2018-07-03T02:57:04.056Z,1.00
2018-07-03T02:59:32.336Z,0.90
2018-07-03T03:02:00.940Z,0.90
2018-07-03T03:04:29.232Z,1.00
2018-07-03T03:06:57.528Z,0.97
2018-07-03T03:09:25.822Z,0.83
2018-07-03T03:11:54.116Z,1.17
2018-07-03T03:14:22.519Z,0.97
2018-07-03T03:16:50.819Z,1.20
2018-07-03T03:19:19.309Z,1.37
2018-07-03T03:21:47.614Z,1.20
2018-07-03T03:24:15.903Z,0.90
2018-07-03T03:26:43.956Z,1.10
2018-07-03T03:29:12.251Z,1.60
2018-07-03T03:31:40.567Z,1.13
2018-07-03T03:34:08.844Z,1.30
2018-07-03T03:36:37.139Z,1.27
2018-07-03T03:39:06.934Z,1.37
2018-07-03T03:41:35.272Z,1.30
2018-07-03T03:44:03.547Z,1.27
2018-07-03T03:46:31.878Z,1.57
2018-07-03T03:49:00.155Z,2.17
2018-07-03T03:51:28.447Z,2.10
2018-07-03T03:53:56.748Z,1.30
2018-07-03T03:56:25.156Z,1.23
2018-07-03T03:58:53.695Z,1.40
2018-07-03T04:01:22.044Z,1.00
2018-07-03T04:03:50.348Z,1.30
2018-07-03T04:06:18.603Z,1.37
2018-07-03T04:08:46.939Z,1.40
2018-07-03T04:11:15.326Z,1.30
2018-07-03T04:13:43.628Z,1.37
2018-07-03T04:16:11.922Z,1.30
2018-07-03T04:18:40.208Z,1.07
2018-07-03T04:21:08.866Z,1.27
2018-07-03T04:23:37.960Z,1.30
2018-07-03T04:26:06.260Z,1.20
2018-07-03T04:28:34.934Z,1.00
2018-07-03T04:31:03.695Z,1.30
2018-07-03T04:33:31.996Z,1.70
2018-07-03T04:36:00.644Z,1.23
2018-07-03T04:38:28.980Z,1.20
2018-07-03T04:40:57.283Z,1.43
2018-07-03T04:43:25.592Z,1.40
2018-07-03T04:45:54.067Z,1.20
2018-07-03T04:48:22.372Z,1.40
2018-07-03T04:50:50.773Z,1.03
2018-07-03T04:53:19.083Z,1.10
2018-07-03T04:55:47.416Z,1.27
2018-07-03T04:58:15.699Z,0.97
2018-07-03T05:00:44.023Z,1.37
2018-07-03T05:03:15.359Z,1.47
2018-07-03T05:05:43.687Z,1.37
2018-07-03T05:08:11.996Z,1.20
2018-07-03T05:10:40.442Z,1.43
2018-07-03T05:13:08.743Z,1.30
2018-07-03T05:15:37.095Z,1.20
2018-07-03T05:18:05.380Z,1.13
2018-07-03T05:20:33.793Z,1.60
2018-07-03T05:23:02.121Z,1.60
2018-07-03T05:25:30.519Z,0.90
2018-07-03T05:27:58.834Z,1.23
2018-07-03T05:30:27.167Z,1.17
2018-07-03T05:32:55.496Z,1.27
2018-07-03T05:35:23.800Z,1.20
2018-07-03T05:37:52.138Z,1.47
2018-07-03T05:40:20.508Z,1.10
2018-07-03T05:42:48.930Z,0.93
2018-07-03T05:45:17.202Z,1.20
2018-07-03T05:47:45.559Z,1.10
2018-07-03T05:50:14.138Z,1.20
2018-07-03T05:52:42.646Z,1.27
2018-07-03T05:55:11.133Z,1.23
2018-07-03T05:57:39.626Z,1.50
2018-07-03T06:00:08.038Z,1.10
2018-07-03T06:02:36.401Z,1.20
2018-07-03T06:05:04.997Z,1.03
2018-07-03T06:07:33.324Z,1.20
2018-07-03T06:10:01.682Z,0.90
2018-07-03T06:12:30.179Z,1.20
2018-07-03T06:14:58.485Z,1.17
2018-07-03T06:17:26.786Z,1.63
2018-07-03T06:19:55.540Z,1.03
2018-07-03T06:22:23.892Z,0.87
2018-07-03T06:24:52.233Z,0.90
2018-07-03T06:27:20.666Z,1.00
2018-07-03T06:29:49.094Z,0.90
2018-07-03T06:32:17.429Z,0.90
2018-07-03T06:34:45.735Z,1.10
2018-07-03T06:37:14.175Z,0.87
2018-07-03T06:39:42.452Z,0.93
2018-07-03T06:42:10.764Z,1.00
2018-07-03T06:44:39.067Z,1.50
2018-07-03T06:47:07.391Z,1.20
2018-07-03T06:49:35.708Z,0.90
2018-07-03T06:52:04.011Z,0.97
2018-07-03T06:54:32.328Z,1.10
2018-07-03T06:57:00.587Z,1.20
2018-07-03T06:59:28.885Z,2.40
2018-07-03T07:01:57.194Z,1.20
2018-07-03T07:04:25.587Z,1.60
2018-07-03T07:06:53.891Z,1.10
2018-07-03T07:09:22.325Z,1.00
2018-07-03T07:11:50.631Z,1.20
2018-07-03T07:14:18.922Z,1.00
2018-07-03T07:16:47.238Z,1.10
2018-07-03T07:19:15.549Z,0.93
2018-07-03T07:21:43.844Z,1.10
2018-07-03T07:24:12.133Z,1.00
2018-07-03T07:26:40.475Z,1.00
2018-07-03T07:29:08.849Z,1.20
2018-07-03T07:31:37.222Z,0.90
2018-07-03T07:34:05.531Z,1.17
2018-07-03T07:36:33.890Z,1.40
2018-07-03T07:39:02.233Z,1.30
2018-07-03T07:41:30.552Z,1.70
2018-07-03T07:43:58.880Z,1.53
2018-07-03T07:48:55.272Z,1.30
2018-07-03T07:51:23.765Z,1.97
2018-07-03T07:53:51.975Z,1.50
2018-07-03T07:56:20.360Z,1.00
2018-07-03T07:58:48.660Z,1.27
2018-07-03T08:01:16.967Z,1.60
2018-07-03T08:03:45.281Z,1.63
2018-07-03T08:06:13.595Z,1.20
2018-07-03T08:08:41.896Z,1.60
2018-07-03T08:11:10.251Z,1.40
2018-07-03T08:13:38.592Z,1.40
2018-07-03T08:16:06.935Z,1.13
2018-07-03T08:18:35.284Z,1.10
2018-07-03T08:21:03.609Z,1.40
2018-07-03T08:23:31.883Z,1.27
2018-07-03T08:26:00.179Z,1.20
2018-07-03T08:28:28.520Z,1.17
2018-07-03T08:30:56.842Z,1.20
2018-07-03T08:33:25.152Z,1.13
2018-07-03T08:35:53.468Z,1.57
2018-07-03T08:38:21.800Z,0.97
2018-07-03T08:40:50.079Z,1.40
2018-07-03T08:43:18.390Z,1.10
2018-07-03T08:45:46.697Z,1.40
2018-07-03T08:48:15.011Z,1.00
2018-07-03T08:50:43.388Z,1.13
2018-07-03T08:53:11.707Z,1.00
2018-07-03T08:55:40.047Z,1.10
2018-07-03T08:58:08.390Z,0.90
2018-07-03T09:00:36.702Z,0.90
2018-07-03T09:03:05.028Z,1.00
2018-07-03T09:05:33.291Z,1.00
2018-07-03T09:08:01.606Z,1.10
2018-07-03T09:10:29.958Z,2.10
2018-07-03T09:12:58.237Z,1.03
2018-07-03T09:15:26.570Z,0.87
2018-07-03T09:17:54.938Z,1.30
2018-07-03T09:20:23.347Z,0.90
2018-07-03T09:22:51.687Z,1.00
2018-07-03T09:25:19.955Z,0.70
2018-07-03T09:27:48.256Z,1.20
2018-07-03T09:30:16.560Z,0.77
2018-07-03T09:32:44.886Z,0.90
2018-07-03T09:35:13.269Z,1.43
2018-07-03T09:37:41.592Z,0.90
2018-07-03T09:40:09.899Z,1.00
2018-07-03T09:42:38.228Z,1.00
2018-07-03T09:45:07.663Z,0.90
2018-07-03T09:47:35.733Z,1.03
2018-07-03T09:50:04.210Z,0.83
2018-07-03T09:52:32.523Z,0.70
2018-07-03T09:55:00.856Z,1.00
2018-07-03T09:57:29.118Z,0.80
2018-07-03T09:59:57.417Z,1.00
2018-07-03T10:02:25.713Z,0.80
2018-07-03T10:04:53.767Z,0.80
2018-07-03T10:07:22.064Z,0.90
2018-07-03T10:09:50.588Z,0.70
2018-07-03T10:12:18.965Z,0.80
2018-07-03T10:14:47.293Z,0.90
2018-07-03T10:17:15.320Z,0.80
2018-07-03T10:19:44.633Z,0.80
2018-07-03T10:22:12.967Z,0.63
2018-07-03T10:24:41.261Z,0.80
2018-07-03T10:27:09.560Z,0.90
2018-07-03T10:29:38.054Z,1.20
2018-07-03T10:32:06.515Z,0.60
2018-07-03T10:34:34.844Z,0.90
2018-07-03T10:37:03.146Z,0.90
2018-07-03T10:39:31.463Z,0.90
2018-07-03T10:41:59.793Z,0.90
2018-07-03T10:44:28.110Z,0.90
2018-07-03T10:46:56.556Z,0.63
2018-07-03T10:49:25.516Z,0.90
2018-07-03T10:51:53.818Z,0.90
2018-07-03T10:54:22.117Z,0.90
2018-07-03T10:56:50.447Z,0.70
2018-07-03T10:59:18.758Z,0.63
2018-07-03T11:01:47.085Z,0.80
2018-07-03T11:04:15.351Z,0.80
2018-07-03T11:06:43.654Z,0.83
2018-07-03T11:09:12.685Z,0.80
2018-07-03T11:11:40.996Z,0.83
2018-07-03T11:14:09.349Z,0.93
2018-07-03T11:16:37.699Z,1.00
2018-07-03T11:19:06.044Z,0.80
2018-07-03T11:21:34.340Z,0.77
2018-07-03T11:24:02.658Z,0.57
2018-07-03T11:26:31.042Z,0.77
2018-07-03T11:28:59.533Z,0.80
2018-07-03T11:31:27.839Z,0.80
2018-07-03T11:33:55.841Z,0.70
2018-07-03T11:36:24.154Z,0.80
2018-07-03T11:38:52.804Z,1.03
2018-07-03T11:41:21.129Z,1.00
2018-07-03T11:43:49.471Z,0.90
2018-07-03T11:46:17.951Z,0.90
2018-07-03T11:48:46.258Z,1.17
2018-07-03T11:51:14.556Z,1.10
2018-07-03T11:53:42.851Z,0.80
2018-07-03T11:56:11.388Z,0.87
2018-07-03T11:58:40.164Z,1.63
2018-07-03T12:01:08.512Z,1.37
2018-07-03T12:03:36.835Z,1.30
2018-07-03T12:06:05.256Z,1.00
2018-07-03T12:08:33.327Z,1.00
2018-07-03T12:11:01.706Z,1.20
2018-07-03T12:13:29.818Z,1.33
2018-07-03T12:15:58.170Z,1.33
2018-07-03T12:18:31.913Z,1.20
2018-07-03T12:21:00.251Z,1.10
2018-07-03T12:23:28.595Z,0.83
2018-07-03T12:25:56.918Z,0.93
2018-07-03T12:28:25.327Z,1.50
2018-07-03T12:30:53.620Z,0.80
2018-07-03T12:33:21.932Z,1.10
2018-07-03T12:35:50.268Z,0.90
2018-07-03T12:38:18.599Z,0.80
2018-07-03T12:40:46.885Z,0.90
2018-07-03T12:43:15.212Z,0.80
2018-07-03T12:45:43.543Z,0.90
2018-07-03T12:48:11.862Z,0.80
2018-07-03T12:50:40.228Z,0.97
2018-07-03T12:53:08.562Z,1.83
2018-07-03T12:55:37.675Z,0.90
2018-07-03T12:58:06.052Z,0.90
2018-07-03T13:00:34.400Z,1.10
2018-07-03T13:03:02.715Z,0.93
2018-07-03T13:05:31.092Z,0.95
2018-07-03T13:07:59.432Z,0.90
2018-07-03T13:10:27.743Z,0.70
2018-07-03T13:12:56.025Z,0.82
2018-07-03T13:15:24.320Z,0.53
2018-07-03T13:17:52.637Z,0.85
2018-07-03T13:20:20.951Z,0.72
2018-07-03T13:22:49.256Z,0.70
2018-07-03T13:25:17.566Z,0.95
2018-07-03T13:27:45.866Z,1.10
2018-07-03T13:31:17.552Z,0.90
2018-07-03T13:33:45.846Z,0.95
2018-07-03T13:36:15.182Z,1.00
2018-07-03T13:38:43.819Z,1.07
2018-07-03T13:41:12.167Z,0.98
2018-07-03T13:43:40.649Z,1.22
2018-07-03T13:46:09.000Z,1.20
2018-07-03T13:48:37.292Z,1.25
2018-07-03T13:51:05.617Z,0.80
2018-07-03T13:53:33.938Z,1.20
2018-07-03T13:56:02.267Z,1.17
2018-07-03T13:58:30.576Z,1.57
2018-07-03T14:00:58.940Z,1.10
2018-07-03T14:03:27.398Z,1.00
2018-07-03T14:05:55.870Z,1.00
2018-07-03T14:08:24.343Z,1.02
2018-07-03T14:10:52.694Z,1.70
2018-07-03T14:13:21.096Z,1.15
2018-07-03T14:15:49.407Z,1.42
2018-07-03T14:18:21.911Z,2.10
2018-07-03T14:20:50.260Z,1.50
2018-07-03T14:23:18.559Z,0.98
2018-07-03T14:25:46.855Z,0.70
2018-07-03T14:28:15.180Z,0.85
2018-07-03T14:30:43.523Z,1.00
2018-07-03T14:33:11.832Z,1.27
2018-07-03T14:35:40.616Z,0.70
2018-07-03T14:38:08.969Z,0.90
2018-07-03T14:40:37.281Z,0.93
2018-07-03T14:43:05.740Z,1.60
2018-07-03T14:45:34.048Z,2.52
2018-07-03T14:48:02.371Z,1.00
2018-07-03T14:50:30.670Z,1.20
2018-07-03T14:52:59.002Z,1.05
2018-07-03T14:55:27.288Z,1.07
2018-07-03T14:57:55.591Z,0.90
2018-07-03T15:00:23.929Z,0.70
2018-07-03T15:02:52.295Z,0.90
2018-07-03T15:05:20.712Z,1.07
2018-07-03T15:07:49.024Z,0.80
2018-07-03T15:10:17.359Z,1.17
2018-07-03T15:12:45.736Z,0.80
2018-07-03T15:15:14.033Z,1.00
2018-07-03T15:17:42.362Z,0.98
2018-07-03T15:20:10.643Z,0.80
2018-07-03T15:22:38.998Z,1.30
2018-07-03T15:25:07.298Z,0.78
2018-07-03T15:27:35.600Z,0.90
2018-07-03T15:30:04.619Z,0.88
2018-07-03T15:32:33.240Z,1.00
2018-07-03T15:35:01.577Z,0.72
2018-07-03T15:40:04.693Z,1.05
2018-07-03T15:42:32.968Z,0.93
2018-07-03T15:45:06.607Z,1.00
2018-07-03T15:47:35.241Z,0.93
2018-07-03T15:50:03.939Z,1.00
2018-07-03T15:52:32.742Z,1.10
2018-07-03T15:55:01.041Z,0.90
2018-07-03T15:57:29.328Z,0.98
2018-07-03T15:59:57.876Z,1.02
2018-07-03T16:02:26.376Z,0.70
2018-07-03T16:05:06.496Z,0.88
2018-07-03T16:09:48.978Z,0.85
2018-07-03T16:12:17.367Z,1.30
2018-07-03T16:14:45.636Z,1.57
2018-07-03T16:17:13.963Z,1.10
2018-07-03T16:19:47.755Z,1.00
2018-07-03T16:22:16.117Z,1.00
2018-07-03T16:24:44.430Z,1.02
2018-07-03T16:27:12.726Z,1.10
2018-07-03T16:29:41.055Z,0.95
2018-07-03T16:32:09.345Z,0.90
2018-07-03T16:34:37.674Z,1.00
2018-07-03T16:37:06.106Z,0.90
2018-07-03T16:39:34.403Z,1.00
2018-07-03T16:42:02.749Z,1.05
2018-07-03T16:44:31.030Z,1.00
2018-07-03T16:46:59.349Z,0.90
2018-07-03T16:49:28.467Z,0.90
2018-07-03T16:51:56.782Z,0.98
2018-07-03T16:54:25.066Z,1.47
2018-07-03T16:56:53.430Z,1.10
2018-07-03T16:59:21.751Z,1.37
2018-07-03T17:01:50.072Z,1.10
2018-07-03T17:04:18.390Z,1.07
2018-07-03T17:06:46.813Z,1.45
2018-07-03T17:09:15.131Z,1.00
2018-07-03T17:11:43.456Z,1.30
2018-07-03T17:14:11.968Z,1.07
2018-07-03T17:16:40.682Z,1.30
2018-07-03T17:19:14.459Z,1.22
2018-07-03T17:21:42.802Z,1.20
2018-07-03T17:24:11.114Z,1.32
2018-07-03T17:26:39.436Z,1.20
2018-07-03T17:29:07.847Z,1.50
2018-07-03T17:31:36.336Z,1.22
2018-07-03T17:34:04.758Z,1.52
2018-07-03T17:36:32.983Z,1.67
2018-07-03T17:39:12.963Z,1.02
2018-07-03T17:41:52.997Z,1.20
2018-07-03T17:45:31.831Z,1.30
2018-07-03T17:48:01.591Z,1.05
2018-07-03T17:50:30.122Z,1.37
2018-07-03T17:52:58.622Z,2.37
2018-07-03T17:55:27.179Z,2.05
2018-07-03T17:57:55.858Z,1.90
2018-07-03T18:00:24.199Z,1.25
2018-07-03T18:02:52.768Z,1.22
2018-07-03T18:05:21.317Z,1.35
2018-07-03T18:07:50.011Z,1.30
2018-07-03T18:10:18.351Z,5.70
2018-07-03T18:12:46.651Z,13.45
2018-07-03T18:15:15.227Z,2.60
2018-07-03T18:17:43.516Z,2.22
2018-07-03T18:20:11.898Z,1.80
2018-07-03T18:22:40.481Z,2.37
2018-07-03T18:25:08.752Z,2.62
2018-07-03T18:27:37.524Z,2.92
2018-07-03T18:30:06.940Z,3.05
2018-07-03T18:32:35.325Z,2.00
2018-07-03T18:35:03.635Z,1.67
2018-07-03T18:37:31.943Z,2.10
2018-07-03T18:40:00.248Z,1.82
2018-07-03T18:42:28.565Z,2.80
2018-07-03T18:44:56.922Z,2.80
2018-07-03T18:47:25.396Z,2.02
2018-07-03T18:49:53.608Z,2.75
2018-07-03T18:52:21.895Z,4.30
2018-07-03T18:54:50.198Z,4.30
2018-07-03T18:57:18.239Z,4.42
2018-07-03T18:59:46.538Z,4.28
2018-07-03T19:02:14.840Z,3.35
2018-07-03T19:04:43.714Z,3.45
2018-07-03T19:07:12.001Z,5.45
2018-07-03T19:09:40.354Z,7.17
2018-07-03T19:12:08.712Z,6.60
2018-07-03T19:14:37.002Z,7.55
2018-07-03T19:17:05.353Z,7.40
2018-07-03T19:19:33.677Z,6.20
2018-07-03T19:22:01.995Z,3.45
2018-07-03T19:24:30.299Z,3.33
2018-07-03T19:26:58.616Z,3.53
2018-07-03T19:29:27.054Z,4.00
2018-07-03T19:31:55.486Z,2.90
2018-07-03T19:34:24.027Z,2.57
2018-07-03T19:36:53.538Z,2.20
2018-07-03T19:39:21.899Z,4.07
2018-07-03T19:41:50.195Z,3.20
2018-07-03T19:44:18.495Z,3.37
2018-07-03T19:46:46.767Z,2.90
2018-07-03T19:49:15.174Z,2.70
2018-07-03T19:51:43.415Z,3.67
2018-07-03T19:54:11.693Z,3.27
2018-07-03T19:56:40.000Z,3.20
2018-07-03T19:59:08.364Z,4.30
2018-07-03T20:01:36.666Z,3.73
2018-07-03T20:04:05.049Z,3.50
2018-07-03T20:06:33.498Z,3.20
2018-07-03T20:09:01.875Z,4.47
2018-07-03T20:11:30.205Z,4.00
2018-07-03T20:13:58.490Z,3.67
2018-07-03T20:16:26.916Z,3.37
2018-07-03T20:18:55.248Z,3.10
2018-07-03T20:21:23.593Z,3.90
2018-07-03T20:23:51.940Z,3.73
2018-07-03T20:26:20.327Z,3.23
2018-07-03T20:28:48.635Z,3.50
2018-07-03T20:31:17.002Z,3.60
2018-07-03T20:33:45.323Z,3.27
2018-07-03T20:36:13.671Z,3.27
2018-07-03T20:38:41.983Z,3.13
2018-07-03T20:41:10.735Z,3.00
2018-07-03T20:43:40.354Z,3.30
2018-07-03T20:46:09.443Z,3.27
2018-07-03T20:48:37.896Z,3.77
2018-07-03T20:51:06.217Z,3.97
2018-07-03T20:53:34.521Z,3.00
2018-07-03T20:56:02.849Z,3.40
2018-07-03T20:58:31.206Z,3.40
2018-07-03T21:00:59.768Z,3.67
2018-07-03T21:03:28.219Z,4.23
2018-07-03T21:05:56.285Z,3.53
2018-07-03T21:08:24.597Z,3.50
2018-07-03T21:10:52.915Z,3.43
2018-07-03T21:13:21.253Z,3.50
2018-07-03T21:15:49.534Z,3.60
2018-07-03T21:18:17.912Z,3.47
2018-07-03T21:20:46.389Z,3.73
2018-07-03T21:23:14.825Z,3.93
2018-07-03T21:25:43.146Z,3.70
2018-07-03T21:28:11.660Z,3.50
2018-07-03T21:30:39.956Z,3.50
2018-07-03T21:33:08.281Z,3.27
2018-07-03T21:35:36.736Z,3.43
2018-07-03T21:38:04.858Z,3.70
2018-07-03T21:40:33.295Z,3.47
2018-07-03T21:43:01.649Z,3.77
2018-07-03T21:45:29.948Z,3.43
2018-07-03T21:47:58.442Z,3.30
2018-07-03T21:50:26.739Z,3.10
2018-07-03T21:52:55.516Z,2.93
2018-07-03T21:55:23.874Z,3.53
2018-07-03T21:57:52.181Z,4.43
2018-07-03T22:00:39.848Z,3.50
2018-07-03T22:03:09.238Z,3.30
2018-07-03T22:05:38.498Z,3.80
2018-07-03T22:08:07.519Z,3.40
2018-07-03T22:10:35.924Z,3.63
2018-07-03T22:13:04.368Z,3.37
2018-07-03T22:15:32.985Z,3.40
2018-07-03T22:18:01.302Z,3.10
2018-07-03T22:20:29.663Z,3.20
2018-07-03T22:22:57.924Z,3.00
2018-07-03T22:25:26.376Z,2.80
2018-07-03T22:27:55.018Z,2.60
2018-07-03T22:30:23.368Z,2.70
2018-07-03T22:32:51.885Z,2.50
2018-07-03T22:35:20.189Z,2.67
2018-07-03T22:37:48.491Z,3.00
2018-07-03T22:40:16.949Z,2.87
2018-07-03T22:42:45.244Z,3.00
2018-07-03T22:45:13.738Z,2.83
2018-07-03T22:47:42.064Z,3.27
2018-07-03T22:50:10.412Z,2.63
2018-07-03T22:52:38.779Z,3.20
2018-07-03T22:55:07.401Z,2.97
2018-07-03T22:57:35.699Z,3.33
2018-07-03T23:00:04.012Z,3.00
2018-07-03T23:02:32.314Z,2.30
2018-07-03T23:05:00.639Z,3.00
2018-07-03T23:07:29.248Z,2.50
2018-07-03T23:09:57.582Z,2.80
2018-07-03T23:12:25.914Z,2.27
2018-07-03T23:14:54.201Z,2.93
2018-07-03T23:17:22.485Z,2.33
2018-07-03T23:19:50.820Z,2.23
2018-07-03T23:22:19.163Z,2.30
2018-07-03T23:24:47.459Z,2.23
2018-07-03T23:27:15.796Z,2.60
2018-07-03T23:29:44.132Z,2.47
2018-07-03T23:32:12.888Z,2.80
2018-07-03T23:34:41.550Z,2.90
2018-07-03T23:37:10.380Z,3.10
2018-07-03T23:39:38.819Z,4.50
2018-07-03T23:42:07.142Z,2.80
2018-07-03T23:44:35.457Z,2.70
2018-07-03T23:47:15.154Z,2.50
2018-07-03T23:49:55.066Z,1.90
2018-07-03T23:52:34.961Z,2.00
2018-07-03T23:55:14.662Z,2.20
2018-07-03T23:57:54.406Z,2.10
